Time;durP1;ratioP1;P1;durP2;ratioP2;P2;SDS_P1;SDS_P2;PMS_P1;PMS_P2;Temp;Humidity;BMP_temperature;BMP_pressure;BME280_temperature;BME280_humidity;BME280_pressure;Samples;Min_cycle;Max_cycle;Signal;HPM_P1;HPM_P2
2021/04/06 00:04:46;;;;;;;3.80;2.15;;;;;;;3.71;56.25;97846.16;258037;1119;114270;-68
2021/04/06 00:10:05;;;;;;;5.23;2.23;;;;;;;3.68;56.73;97846.33;257997;1119;113952;-68
2021/04/06 00:15:10;;;;;;;4.28;1.90;;;;;;;3.70;56.54;97831.29;258315;1118;114246;-67
2021/04/06 00:20:14;;;;;;;;;;;;;;;3.64;56.42;97831.64;258315;1118;114211;-66
2021/04/06 00:25:21;;;;;;;6.13;2.58;;;;;;;3.59;56.57;97850.28;258313;1119;103026;-67
2021/04/06 00:30:29;;;;;;;4.08;3.05;;;;;;;3.59;56.71;97855.54;258306;1120;114101;-66
2021/04/06 00:35:34;;;;;;;6.43;3.80;;;;;;;3.47;56.90;97853.58;258273;1119;114305;-67
2021/04/06 00:40:45;;;;;;;5.45;3.90;;;;;;;3.45;57.30;97860.69;257952;1120;114445;-67
2021/04/06 00:45:48;;;;;;;6.20;4.88;;;;;;;3.35;57.24;97867.35;257533;1119;114424;-66
2021/04/06 00:51:12;;;;;;;6.60;4.33;;;;;;;3.32;57.84;97863.94;258248;1119;114195;-67
2021/04/06 00:56:17;;;;;;;6.35;3.75;;;;;;;3.27;57.78;97868.59;258084;1118;114463;-66
2021/04/06 01:01:33;;;;;;;7.25;4.15;;;;;;;3.22;57.97;97862.71;257974;1118;114550;-67
2021/04/06 01:07:02;;;;;;;5.25;3.65;;;;;;;3.30;57.97;97880.74;257870;1118;114281;-67
2021/04/06 01:12:06;;;;;;;4.33;3.10;;;;;;;3.35;57.90;97860.31;257958;1110;114549;-67
2021/04/06 01:17:12;;;;;;;5.48;2.93;;;;;;;3.32;58.12;97865.72;257546;1118;114497;-67
2021/04/06 01:22:17;;;;;;;5.48;3.35;;;;;;;3.30;57.92;97878.11;257883;1117;114296;-67
2021/04/06 01:27:20;;;;;;;5.63;3.80;;;;;;;3.32;58.29;97886.75;257638;1118;137529;-74
2021/04/06 01:32:26;;;;;;;4.73;3.98;;;;;;;3.31;58.26;97879.80;257858;1118;114657;-67
2021/04/06 01:37:29;;;;;;;6.53;3.93;;;;;;;3.30;58.30;97886.84;257827;1117;115276;-67
2021/04/06 01:42:34;;;;;;;6.63;3.55;;;;;;;3.31;58.30;97903.47;257628;1118;114528;-73
2021/04/06 01:47:38;;;;;;;5.35;3.45;;;;;;;3.44;58.62;97893.18;257421;1119;114387;-66
2021/04/06 01:52:49;;;;;;;6.58;4.30;;;;;;;3.40;58.90;97921.41;257732;1117;114553;-67
2021/04/06 01:57:52;;;;;;;5.58;4.33;;;;;;;3.35;58.76;97894.48;257488;1118;115404;-67
2021/04/06 02:02:59;;;;;;;8.03;4.97;;;;;;;3.34;58.77;97886.70;257791;1118;114342;-75
2021/04/06 02:08:10;;;;;;;7.00;4.50;;;;;;;3.29;58.51;97865.88;257705;1118;114543;-74
2021/04/06 02:13:15;;;;;;;8.75;6.25;;;;;;;3.19;59.01;97875.16;258126;1118;114742;-74
2021/04/06 02:18:21;;;;;;;;;;;;;;;3.20;59.08;97882.14;257523;1118;114388;-74
2021/04/06 02:23:25;;;;;;;;;;;;;;;3.11;59.04;97895.74;257941;1117;101053;-74
2021/04/06 02:28:28;;;;;;;9.18;6.18;;;;;;;3.13;59.35;97893.90;258325;1117;100856;-74
2021/04/06 02:33:36;;;;;;;8.68;6.68;;;;;;;3.22;59.42;97896.04;257742;1118;114870;-74
2021/04/06 02:38:43;;;;;;;11.00;6.70;;;;;;;3.27;59.24;97905.41;257334;1117;114268;-74
2021/04/06 02:43:54;;;;;;;9.75;7.40;;;;;;;3.28;59.15;97924.66;257690;1118;114498;-74
2021/04/06 02:49:00;;;;;;;9.05;6.60;;;;;;;3.25;58.87;97906.41;257652;1118;116685;-67
2021/04/06 02:54:03;;;;;;;11.83;7.03;;;;;;;3.19;59.13;97917.22;257816;1118;114321;-67
2021/04/06 02:59:14;;;;;;;9.83;6.90;;;;;;;3.18;59.42;97913.75;257712;1118;114480;-75
2021/04/06 03:04:28;;;;;;;10.60;6.98;;;;;;;3.15;59.08;97947.22;257789;1118;114523;-75
2021/04/06 03:09:31;;;;;;;11.78;6.83;;;;;;;3.16;59.17;97935.77;257546;1118;115096;-68
2021/04/06 03:14:33;;;;;;;9.20;6.50;;;;;;;3.19;59.02;97948.77;257680;1119;114921;-68
2021/04/06 03:19:37;;;;;;;11.68;7.25;;;;;;;3.17;59.07;97958.52;257706;1118;114659;-68
2021/04/06 03:24:40;;;;;;;10.95;7.48;;;;;;;3.21;58.64;97965.33;256641;1118;115105;-68
2021/04/06 03:29:42;;;;;;;11.10;6.95;;;;;;;3.24;59.12;97973.91;257704;1117;114831;-73
2021/04/06 03:34:46;;;;;;;15.73;8.05;;;;;;;3.28;59.25;97969.35;257929;1118;114642;-73
2021/04/06 03:39:48;;;;;;;10.38;6.53;;;;;;;3.24;58.70;97944.14;257596;1118;114682;-71
2021/04/06 03:45:03;;;;;;;9.68;6.28;;;;;;;3.19;58.33;97904.08;258092;1118;115630;-75
2021/04/06 03:50:07;;;;;;;12.77;5.60;;;;;;;3.11;58.42;97916.77;257732;1118;114424;-75
2021/04/06 03:55:10;;;;;;;9.28;5.45;;;;;;;3.02;58.21;97933.83;257739;1117;114811;-67
2021/04/06 04:00:14;;;;;;;8.53;4.78;;;;;;;2.96;58.11;97960.44;257734;1118;114570;-67
2021/04/06 04:05:16;;;;;;;12.68;5.18;;;;;;;2.94;58.49;97951.77;257845;1118;114520;-66
2021/04/06 04:10:19;;;;;;;9.85;5.90;;;;;;;2.94;58.45;97947.36;257594;1117;114932;-66
2021/04/06 04:15:22;;;;;;;9.08;5.03;;;;;;;3.00;58.45;97946.22;257806;1118;114460;-66
2021/04/06 04:20:25;;;;;;;9.33;5.70;;;;;;;3.03;58.16;97948.70;257781;1118;114742;-67
2021/04/06 04:25:27;;;;;;;11.23;5.95;;;;;;;3.01;57.79;97959.27;257818;1118;115211;-67
2021/04/06 04:30:41;;;;;;;11.23;5.55;;;;;;;3.02;57.81;97976.76;257856;1117;114496;-66
2021/04/06 04:35:44;;;;;;;12.68;6.13;;;;;;;3.00;57.90;97996.14;257591;1118;114685;-67
2021/04/06 04:40:47;;;;;;;10.75;5.85;;;;;;;2.98;57.51;97992.73;257937;1118;114782;-66
2021/04/06 04:45:49;;;;;;;8.33;5.33;;;;;;;2.99;57.60;97987.41;257770;1118;114804;-74
2021/04/06 04:50:52;;;;;;;13.28;5.13;;;;;;;3.01;57.97;97995.21;256744;1118;114502;-74
2021/04/06 04:55:55;;;;;;;12.55;6.00;;;;;;;3.01;57.80;97990.80;257858;1118;114477;-73
2021/04/06 05:00:58;;;;;;;12.18;6.28;;;;;;;3.05;58.15;98007.27;257906;1117;114801;-74
2021/04/06 05:06:05;;;;;;;12.90;5.83;;;;;;;3.12;57.60;98019.19;257699;1118;114681;-74
2021/04/06 05:11:09;;;;;;;11.28;5.73;;;;;;;3.14;57.53;98019.98;257705;1118;114876;-74
2021/04/06 05:16:11;;;;;;;11.73;5.08;;;;;;;3.15;57.32;98031.34;257812;1118;114525;-74
2021/04/06 05:21:14;;;;;;;10.03;4.93;;;;;;;3.06;57.02;98030.02;257784;1118;114573;-74
2021/04/06 05:26:17;;;;;;;11.13;6.07;;;;;;;2.92;57.04;98032.43;257692;1118;114886;-74
2021/04/06 05:31:20;;;;;;;11.18;5.98;;;;;;;2.86;57.22;98038.00;257884;1117;114758;-74
2021/04/06 05:36:22;;;;;;;11.23;5.48;;;;;;;2.78;57.29;98039.19;257373;1119;114811;-75
2021/04/06 05:41:30;;;;;;;11.93;5.53;;;;;;;2.76;57.40;98048.08;257635;1117;114915;-74
2021/04/06 05:46:37;;;;;;;10.10;5.33;;;;;;;2.75;57.01;98041.98;257806;1118;114525;-73
2021/04/06 05:51:41;;;;;;;11.88;5.30;;;;;;;2.80;57.58;98057.52;257421;1117;114440;-75
2021/04/06 05:56:44;;;;;;;10.33;4.88;;;;;;;2.78;57.25;98038.34;257613;1118;115231;-75
2021/04/06 06:01:47;;;;;;;8.63;5.03;;;;;;;2.84;57.68;98025.77;257377;1117;114832;-76
2021/04/06 06:06:53;;;;;;;;;;;;;;;2.94;57.67;98034.07;257797;1117;114387;-75
2021/04/06 06:11:56;;;;;;;9.20;4.68;;;;;;;2.98;57.47;98027.73;257880;1117;101944;-76
2021/04/06 06:17:19;;;;;;;12.83;5.35;;;;;;;3.00;57.37;98033.78;257894;1118;114374;-68
2021/04/06 06:22:27;;;;;;;13.55;6.10;;;;;;;3.10;57.20;98021.06;257984;1118;114884;-69
2021/04/06 06:27:39;;;;;;;16.40;6.33;;;;;;;3.20;57.20;98029.36;257331;1119;114502;-68
2021/04/06 06:32:42;;;;;;;16.35;6.25;;;;;;;3.27;56.92;98020.24;257669;1118;114801;-67
2021/04/06 06:37:45;;;;;;;11.48;5.78;;;;;;;3.28;56.73;98032.45;257462;1119;114603;-66
2021/04/06 06:42:50;;;;;;;19.40;6.93;;;;;;;3.27;56.77;98018.46;257683;1118;114884;-67
2021/04/06 06:47:57;;;;;;;17.78;7.35;;;;;;;3.34;56.70;98011.13;257661;1118;114621;-67
2021/04/06 06:53:00;;;;;;;16.73;7.60;;;;;;;3.35;56.64;98018.07;257444;1118;115357;-67
2021/04/06 06:58:06;;;;;;;16.70;7.63;;;;;;;3.29;56.43;98016.62;257651;1118;114581;-68
2021/04/06 07:03:15;;;;;;;11.70;6.15;;;;;;;3.21;56.15;98017.91;257764;1117;115027;-74
2021/04/06 07:08:36;;;;;;;12.60;5.88;;;;;;;3.03;56.20;98019.66;257703;1117;114481;-74
2021/04/06 07:13:39;;;;;;;19.70;6.48;;;;;;;3.00;56.67;98014.54;257661;1117;115082;-67
2021/04/06 07:18:43;;;;;;;20.85;6.58;;;;;;;3.09;56.92;98006.19;257764;1117;114825;-68
2021/04/06 07:24:00;;;;;;;12.73;6.03;;;;;;;3.18;56.80;98005.75;257882;1117;114818;-68
2021/04/06 07:29:09;;;;;;;20.80;6.25;;;;;;;3.25;56.61;98001.89;257608;1118;115198;-74
2021/04/06 07:34:12;;;;;;;14.85;6.80;;;;;;;3.20;56.60;98016.21;257669;1117;114957;-75
2021/04/06 07:39:15;;;;;;;26.08;7.43;;;;;;;3.19;56.52;98012.70;257712;1118;114650;-67
2021/04/06 07:44:18;;;;;;;16.70;7.98;;;;;;;3.20;56.24;98014.42;257623;1118;115164;-68
2021/04/06 07:49:27;;;;;;;17.28;7.30;;;;;;;3.18;56.23;98024.16;257715;1118;114820;-67
2021/04/06 07:54:33;;;;;;;15.08;7.45;;;;;;;3.06;56.29;98006.37;257712;1118;114780;-75
2021/04/06 07:59:35;;;;;;;20.68;8.08;;;;;;;3.07;56.40;98011.53;257754;1118;114807;-75
2021/04/06 08:04:38;;;;;;;20.45;7.55;;;;;;;3.15;56.56;98015.57;257900;1118;114831;-75
2021/04/06 08:09:44;;;;;;;14.50;6.83;;;;;;;3.16;56.34;98019.89;257795;1118;114706;-75
2021/04/06 08:15:01;;;;;;;16.03;7.55;;;;;;;3.14;56.36;98027.86;257635;1117;114553;-68
2021/04/06 08:20:22;;;;;;;20.03;7.55;;;;;;;3.10;56.79;98017.59;257996;1117;114969;-68
2021/04/06 08:25:31;;;;;;;17.00;8.00;;;;;;;3.13;57.24;98026.17;257827;1118;114657;-66
2021/04/06 08:30:36;;;;;;;14.97;6.37;;;;;;;3.19;57.14;98033.73;257624;1117;114733;-67
2021/04/06 08:40:57;;;;;;;19.68;8.65;;;;;;;3.23;57.12;98058.13;257614;1118;114949;-66
2021/04/06 08:46:01;;;;;;;17.03;7.38;;;;;;;3.36;57.07;98059.21;257689;1118;115039;-67
2021/04/06 08:51:19;;;;;;;17.70;8.50;;;;;;;3.42;56.77;98058.07;257710;1118;114986;-67
2021/04/06 08:56:27;;;;;;;16.20;7.73;;;;;;;3.54;56.78;98062.73;257733;1118;115139;-68
2021/04/06 09:01:30;;;;;;;19.58;8.73;;;;;;;3.57;56.58;98049.44;257246;1118;114800;-69
2021/04/06 09:06:33;;;;;;;19.53;8.23;;;;;;;3.60;56.52;98049.29;257567;1118;114746;-73
2021/04/06 09:11:38;;;;;;;16.70;7.40;;;;;;;3.63;56.32;98045.63;257673;1118;114742;-72
2021/04/06 09:16:41;;;;;;;15.00;7.00;;;;;;;3.75;56.17;98055.55;257455;1118;115292;-72
2021/04/06 09:21:54;;;;;;;18.80;7.25;;;;;;;3.75;55.89;98034.50;257681;1118;114843;-72
2021/04/06 09:26:59;;;;;;;16.20;6.53;;;;;;;3.69;55.61;98029.55;257675;1119;115496;-79
2021/04/06 09:32:06;;;;;;;21.53;7.88;;;;;;;3.60;56.08;97998.43;258018;1118;115097;-79
2021/04/06 09:37:11;;;;;;;14.25;6.93;;;;;;;3.58;56.29;97989.78;257632;1118;115245;-79
2021/04/06 09:42:15;;;;;;;17.18;7.53;;;;;;;3.54;56.34;98021.50;257515;1118;114569;-79
2021/04/06 09:47:23;;;;;;;18.58;7.33;;;;;;;3.39;56.42;98019.62;257666;1118;115079;-76
2021/04/06 09:52:28;;;;;;;21.13;7.30;;;;;;;3.32;56.94;98031.37;257667;1117;114596;-78
2021/04/06 09:57:36;;;;;;;18.28;8.18;;;;;;;3.35;57.07;98020.70;257674;1117;114724;-79
2021/04/06 10:02:39;;;;;;;16.73;7.58;;;;;;;3.39;56.87;98010.88;257922;1118;114725;-79
2021/04/06 10:07:46;;;;;;;17.68;7.93;;;;;;;3.55;56.68;98014.45;257621;1117;115083;-78
2021/04/06 10:12:51;;;;;;;17.58;6.83;;;;;;;3.79;57.09;98036.89;257654;1119;114638;-79
2021/04/06 10:17:54;;;;;;;;;;;;;;;3.85;57.01;98041.00;257567;1118;115044;-79
2021/04/06 10:22:58;;;;;;;19.05;6.80;;;;;;;3.83;56.76;98042.00;258020;1117;101419;-79
2021/04/06 10:28:04;;;;;;;19.23;7.28;;;;;;;3.86;57.42;98055.00;258148;1119;114567;-79
2021/04/06 10:33:16;;;;;;;14.28;7.38;;;;;;;3.92;57.13;98038.91;257865;1119;114811;-79
2021/04/06 10:38:20;;;;;;;15.73;5.93;;;;;;;3.83;57.04;98034.95;257079;1118;114518;-79
2021/04/06 10:43:23;;;;;;;16.83;7.33;;;;;;;3.85;57.69;98025.21;257918;1118;114627;-78
2021/04/06 10:48:28;;;;;;;15.70;7.08;;;;;;;4.13;57.99;98019.36;258462;1118;114119;-78
2021/04/06 10:53:37;;;;;;;14.30;5.45;;;;;;;4.46;57.67;98000.92;258508;1118;114772;-78
2021/04/06 10:58:50;;;;;;;11.68;4.58;;;;;;;4.63;56.28;97999.16;258316;1119;114443;-78
2021/04/06 11:03:52;;;;;;;15.10;5.58;;;;;;;4.59;56.02;98006.38;258104;1119;114421;-79
2021/04/06 11:08:57;;;;;;;15.15;5.73;;;;;;;4.55;55.97;98010.09;258248;1119;114320;-79
2021/04/06 11:14:03;;;;;;;16.80;6.30;;;;;;;4.35;56.32;98013.83;257797;1119;114524;-78
2021/04/06 11:19:16;;;;;;;15.93;5.83;;;;;;;4.13;56.19;98021.99;258372;1119;114572;-79
2021/04/06 11:24:21;;;;;;;16.60;7.30;;;;;;;4.17;57.07;98013.00;258268;1120;114535;-72
2021/04/06 11:29:26;;;;;;;15.78;6.75;;;;;;;4.56;57.84;98000.43;258326;1118;114424;-72
2021/04/06 11:34:31;;;;;;;12.98;7.03;;;;;;;5.02;58.20;97988.17;258185;1119;114453;-72
2021/04/06 11:39:36;;;;;;;14.75;6.35;;;;;;;5.51;56.93;97980.09;257952;1118;114441;-73
2021/04/06 11:44:39;;;;;;;;;;;;;;;6.02;56.24;97966.55;258342;1118;114504;-72
2021/04/06 11:49:42;;;;;;;12.45;5.60;;;;;;;5.99;54.47;97962.30;257698;1119;101023;-72
2021/04/06 11:54:45;;;;;;;15.30;6.50;;;;;;;5.85;53.87;97968.38;257622;1119;114648;-71
2021/04/06 11:59:49;;;;;;;12.78;5.45;;;;;;;5.60;54.11;97958.41;257696;1119;114642;-71
2021/04/06 12:04:52;;;;;;;16.10;6.13;;;;;;;5.73;54.80;97960.34;257673;1118;115064;-72
2021/04/06 12:09:54;;;;;;;13.25;5.40;;;;;;;5.86;53.94;97950.73;258249;1120;114260;-72
2021/04/06 12:14:58;;;;;;;11.78;5.33;;;;;;;5.70;53.26;97941.09;258349;1118;114411;-73
2021/04/06 12:20:01;;;;;;;11.90;5.05;;;;;;;5.58;53.06;97941.84;258017;1119;114762;-73
2021/04/06 12:25:05;;;;;;;13.95;4.90;;;;;;;5.49;52.65;97945.02;257896;1119;115394;-72
2021/04/06 12:30:08;;;;;;;11.58;5.80;;;;;;;5.46;52.21;97943.40;258101;1118;114513;-73
2021/04/06 12:35:11;;;;;;;11.93;5.43;;;;;;;5.42;51.96;97936.61;258262;1118;114794;-72
2021/04/06 12:40:15;;;;;;;10.10;4.63;;;;;;;5.38;52.44;97926.34;258214;1119;114412;-72
2021/04/06 12:45:19;;;;;;;11.85;5.55;;;;;;;5.44;53.20;97926.83;258127;1120;114425;-71
2021/04/06 12:50:23;;;;;;;13.18;5.25;;;;;;;5.57;52.87;97918.16;257995;1119;214733;-71
2021/04/06 12:55:27;;;;;;;11.25;4.28;;;;;;;5.61;52.34;97924.98;258145;1119;114685;-71
2021/04/06 13:00:31;;;;;;;10.53;4.95;;;;;;;5.47;52.14;97915.25;258375;1119;114567;-71
2021/04/06 13:05:34;;;;;;;11.18;4.90;;;;;;;5.43;52.12;97916.34;258059;1118;114123;-72
2021/04/06 13:10:41;;;;;;;11.00;5.25;;;;;;;5.48;52.77;97911.66;258163;1118;114482;-71
2021/04/06 13:15:44;;;;;;;14.90;7.00;;;;;;;5.67;52.51;97906.98;258085;1119;114496;-71
2021/04/06 13:20:47;;;;;;;12.90;5.15;;;;;;;6.05;53.22;97908.27;257822;1119;114824;-71
2021/04/06 13:25:51;;;;;;;11.73;5.05;;;;;;;6.26;52.80;97893.70;258313;1119;114651;-71
2021/04/06 13:30:54;;;;;;;8.83;4.48;;;;;;;6.44;53.12;97893.48;258052;1119;114485;-72
2021/04/06 13:35:56;;;;;;;10.35;4.33;;;;;;;7.06;52.52;97889.38;258258;1118;114719;-72
2021/04/06 13:41:00;;;;;;;9.35;3.98;;;;;;;7.50;50.90;97895.30;258207;1118;114405;-71
2021/04/06 13:46:02;;;;;;;12.23;4.45;;;;;;;7.68;49.09;97899.35;258029;1119;114536;-72
2021/04/06 13:51:05;;;;;;;10.68;4.03;;;;;;;7.54;48.83;97894.13;258374;1119;114298;-72
2021/04/06 13:56:08;;;;;;;9.10;4.08;;;;;;;7.87;48.85;97885.67;258215;1119;114539;-72
2021/04/06 14:01:11;;;;;;;8.55;3.80;;;;;;;8.27;47.38;97877.57;258127;1119;114307;-72
2021/04/06 14:06:14;;;;;;;7.00;3.58;;;;;;;8.22;46.44;97864.66;258186;1118;114469;-72
2021/04/06 14:11:17;;;;;;;6.85;3.65;;;;;;;8.01;45.86;97864.35;258257;1119;114338;-72
2021/04/06 14:16:20;;;;;;;5.83;3.10;;;;;;;7.58;43.83;97869.17;257970;1118;114261;-72
2021/04/06 14:21:23;;;;;;;4.50;2.70;;;;;;;7.39;43.59;97860.78;258322;1119;115040;-72
2021/04/06 14:26:29;;;;;;;7.40;3.60;;;;;;;7.38;43.71;97859.09;258337;1118;114361;-72
2021/04/06 14:31:33;;;;;;;10.80;3.53;;;;;;;7.25;44.16;97865.20;258160;1119;114286;-72
2021/04/06 14:36:36;;;;;;;10.55;3.75;;;;;;;7.13;43.77;97873.95;258180;1118;114463;-72
2021/04/06 14:41:39;;;;;;;9.18;4.63;;;;;;;7.01;43.92;97867.70;258109;1118;114518;-72
2021/04/06 14:46:42;;;;;;;10.88;5.08;;;;;;;6.93;44.13;97864.72;257868;1118;114399;-72
2021/04/06 14:51:45;;;;;;;10.25;4.88;;;;;;;6.84;45.31;97858.23;257567;1118;114699;-73
2021/04/06 14:56:48;;;;;;;12.23;5.18;;;;;;;6.86;45.00;97850.19;257545;1118;115025;-72
2021/04/06 15:01:51;;;;;;;11.05;4.63;;;;;;;6.84;45.29;97842.37;257628;1117;114708;-72
2021/04/06 15:06:55;;;;;;;7.73;3.95;;;;;;;6.76;44.49;97875.53;257578;1118;114715;-71
2021/04/06 15:11:58;;;;;;;9.98;4.65;;;;;;;6.60;44.73;97870.41;257518;1118;114500;-72
2021/04/06 15:17:02;;;;;;;8.40;4.15;;;;;;;6.39;44.68;97878.78;257555;1118;115163;-71
2021/04/06 15:22:08;;;;;;;6.40;3.43;;;;;;;6.24;45.23;97887.66;257612;1117;114830;-73
2021/04/06 15:27:10;;;;;;;9.88;4.53;;;;;;;6.07;45.48;97903.72;257863;1117;115098;-73
2021/04/06 15:32:13;;;;;;;12.38;4.60;;;;;;;5.97;45.54;97903.43;257719;1117;114636;-73
2021/04/06 15:37:16;;;;;;;9.43;3.93;;;;;;;5.86;45.82;97904.06;257986;1118;114764;-72
2021/04/06 15:42:20;;;;;;;6.75;4.15;;;;;;;5.76;46.41;97897.65;257632;1117;115275;-72
2021/04/06 15:47:24;;;;;;;10.98;4.88;;;;;;;5.58;46.24;97906.69;257640;1118;115006;-71
2021/04/06 15:52:32;;;;;;;8.65;4.88;;;;;;;5.49;46.23;97891.40;257610;1118;114797;-71
2021/04/06 15:57:35;;;;;;;9.13;4.88;;;;;;;5.42;46.71;97904.11;257693;1118;115051;-72
2021/04/06 16:02:38;;;;;;;13.08;5.33;;;;;;;5.35;46.12;97910.69;257639;1117;114488;-78
2021/04/06 16:07:43;;;;;;;9.23;4.53;;;;;;;5.30;46.73;97900.42;257660;1117;115659;-78
2021/04/06 16:12:47;;;;;;;10.13;4.30;;;;;;;5.21;46.29;97900.95;257495;1119;114642;-78
2021/04/06 16:17:51;;;;;;;7.43;3.30;;;;;;;5.15;45.75;97902.15;257781;1118;114728;-78
2021/04/06 16:23:01;;;;;;;8.35;3.53;;;;;;;5.12;45.73;97902.33;257418;1118;114684;-78
2021/04/06 16:28:10;;;;;;;5.60;3.03;;;;;;;5.10;46.06;97898.95;257652;1117;114545;-78
2021/04/06 16:33:14;;;;;;;9.93;4.03;;;;;;;5.10;45.91;97896.31;257713;1117;114815;-78
2021/04/06 16:38:19;;;;;;;8.10;4.25;;;;;;;5.08;45.67;97892.91;257717;1119;114561;-78
2021/04/06 16:43:22;;;;;;;12.28;4.68;;;;;;;5.13;46.20;97895.26;257805;1117;115970;-79
2021/04/06 16:48:27;;;;;;;8.58;4.68;;;;;;;5.19;46.49;97900.18;257582;1117;114747;-78
2021/04/06 16:53:33;;;;;;;9.90;4.73;;;;;;;5.14;45.80;97896.98;257734;1118;114557;-78
2021/04/06 16:58:37;;;;;;;11.53;4.78;;;;;;;5.10;46.03;97895.47;257710;1117;114704;-78
2021/04/06 17:03:41;;;;;;;11.75;5.10;;;;;;;5.04;46.54;97901.94;257663;1119;115450;-79
2021/04/06 17:08:44;;;;;;;13.80;6.23;;;;;;;5.03;46.11;97902.00;257681;1117;114842;-78
2021/04/06 17:13:47;;;;;;;10.38;5.58;;;;;;;4.97;46.29;97911.14;257683;1118;114742;-78
2021/04/06 17:18:49;;;;;;;12.48;6.63;;;;;;;4.92;46.96;97910.53;257397;1118;115227;-72
2021/04/06 17:23:52;;;;;;;12.08;5.60;;;;;;;4.83;46.89;97908.45;257685;1117;114883;-72
2021/04/06 17:28:55;;;;;;;9.40;4.98;;;;;;;4.73;46.42;97916.02;258015;1118;114806;-71
2021/04/06 17:33:58;;;;;;;12.43;5.73;;;;;;;4.63;46.98;97918.32;257707;1118;114614;-71
2021/04/06 17:39:01;;;;;;;11.20;5.83;;;;;;;4.55;47.21;97925.78;257740;1118;114921;-74
2021/04/06 17:44:04;;;;;;;12.88;6.00;;;;;;;4.45;47.64;97922.84;257870;1118;115677;-74
2021/04/06 17:49:07;;;;;;;12.20;6.08;;;;;;;4.42;47.46;97924.80;257598;1119;114821;-74
2021/04/06 17:54:10;;;;;;;11.65;5.65;;;;;;;4.36;47.97;97928.60;257557;1118;115155;-73
2021/04/06 17:59:12;;;;;;;13.63;7.08;;;;;;;4.32;47.71;97934.13;257836;1118;114797;-72
2021/04/06 18:04:16;;;;;;;11.18;5.30;;;;;;;4.26;47.88;97944.05;257621;1118;114907;-71
2021/04/06 18:09:18;;;;;;;10.05;5.40;;;;;;;4.22;47.84;97952.21;257680;1117;114706;-78
2021/04/06 18:14:21;;;;;;;11.48;4.88;;;;;;;4.18;47.79;97955.95;257757;1118;114941;-79
2021/04/06 18:19:24;;;;;;;11.73;4.83;;;;;;;4.14;47.58;97957.86;257836;1117;115020;-73
2021/04/06 18:24:26;;;;;;;12.13;4.60;;;;;;;4.08;47.79;97958.22;257768;1118;115021;-75
2021/04/06 18:29:30;;;;;;;9.30;4.80;;;;;;;4.02;47.89;97959.38;257706;1118;115053;-74
2021/04/06 18:34:33;;;;;;;12.17;5.40;;;;;;;3.97;48.06;97958.79;257561;1118;114511;-76
2021/04/06 18:39:37;;;;;;;10.68;5.45;;;;;;;3.89;48.17;97957.48;257431;1119;114865;-74
2021/04/06 18:44:40;;;;;;;6.70;3.60;;;;;;;3.88;48.16;97958.42;257890;1118;114579;-73
2021/04/06 18:49:43;;;;;;;14.73;6.40;;;;;;;3.85;48.33;97948.89;257487;1118;114514;-73
2021/04/06 18:54:48;;;;;;;16.13;5.68;;;;;;;3.86;48.73;97942.69;257681;1118;114730;-71
2021/04/06 18:59:54;;;;;;;9.98;5.10;;;;;;;3.80;48.43;97956.16;257621;1118;115365;-71
2021/04/06 19:04:56;;;;;;;11.50;5.43;;;;;;;3.78;48.48;97952.78;257819;1118;114476;-71
2021/04/06 19:09:59;;;;;;;14.53;6.38;;;;;;;3.73;48.57;97960.89;257567;1118;114752;-70
2021/04/06 19:15:04;;;;;;;13.00;5.78;;;;;;;3.72;48.76;97953.09;257808;1118;114981;-73
2021/04/06 19:20:08;;;;;;;14.58;6.03;;;;;;;3.67;49.07;97958.60;257889;1117;114617;-71
2021/04/06 19:25:12;;;;;;;12.20;6.25;;;;;;;3.67;48.88;97960.36;257680;1118;114741;-70
2021/04/06 19:30:16;;;;;;;15.58;6.65;;;;;;;3.68;49.37;97959.45;257365;1117;115215;-72
2021/04/06 19:35:19;;;;;;;11.48;6.25;;;;;;;3.65;49.14;97959.60;258044;1110;114928;-72
2021/04/06 19:40:24;;;;;;;14.85;5.88;;;;;;;3.60;49.27;97957.22;257625;1117;114607;-72
2021/04/06 19:45:27;;;;;;;15.33;7.18;;;;;;;3.61;49.44;97961.54;257416;1118;114745;-72
2021/04/06 19:50:31;;;;;;;10.93;6.38;;;;;;;3.59;49.71;97967.80;257630;1117;114974;-71
2021/04/06 19:55:36;;;;;;;11.45;6.55;;;;;;;3.56;49.85;97976.69;257651;1118;114449;-72
2021/04/06 20:00:43;;;;;;;17.53;6.80;;;;;;;3.55;50.04;97967.11;257383;1118;115195;-72
2021/04/06 20:05:46;;;;;;;12.65;7.05;;;;;;;3.49;50.01;97968.27;257714;1118;114761;-72
2021/04/06 20:10:51;;;;;;;15.08;7.75;;;;;;;3.42;50.05;97968.66;257616;1119;114912;-72
2021/04/06 20:15:56;;;;;;;;;;;;;;;3.31;50.28;97972.67;257740;1117;114688;-77
2021/04/06 20:21:03;;;;;;;17.53;7.90;;;;;;;3.26;50.75;97974.70;258186;1118;100828;-77
2021/04/06 20:26:07;;;;;;;18.90;9.13;;;;;;;3.22;50.50;97967.02;256352;1112;114600;-77
2021/04/06 20:31:11;;;;;;;24.08;10.25;;;;;;;3.17;50.53;97964.63;257937;1118;115140;-77
2021/04/06 20:36:14;;;;;;;24.10;11.45;;;;;;;3.17;50.69;97967.26;257902;1118;114832;-77
2021/04/06 20:41:20;;;;;;;28.18;13.38;;;;;;;3.09;50.88;97969.39;258264;1119;114544;-77
2021/04/06 20:46:22;;;;;;;31.23;15.95;;;;;;;3.06;51.28;97974.83;257788;1120;114669;-77
2021/04/06 20:51:27;;;;;;;32.33;16.13;;;;;;;3.00;51.21;97980.38;258014;1118;114716;-77
2021/04/06 20:56:31;;;;;;;37.18;15.88;;;;;;;2.97;51.37;97980.52;258014;1119;114560;-77
2021/04/06 21:01:34;;;;;;;36.15;15.65;;;;;;;2.89;51.33;97975.65;258197;1118;114622;-77
2021/04/06 21:06:38;;;;;;;33.90;16.83;;;;;;;2.86;51.47;97973.16;257939;1119;114243;-77
2021/04/06 21:11:41;;;;;;;35.68;19.30;;;;;;;2.82;51.60;97972.46;258304;1118;114371;-71
2021/04/06 21:16:43;;;;;;;38.63;18.00;;;;;;;2.76;51.64;97979.78;258222;1118;114233;-71
2021/04/06 21:21:46;;;;;;;43.35;21.05;;;;;;;2.72;51.62;97972.98;258245;1118;114694;-72
2021/04/06 21:26:49;;;;;;;45.73;22.23;;;;;;;2.68;52.08;97981.91;258250;1118;114743;-72
2021/04/06 21:31:52;;;;;;;40.40;19.38;;;;;;;2.67;52.04;97975.80;258077;1119;114607;-72
2021/04/06 21:36:55;;;;;;;39.40;19.98;;;;;;;2.67;52.13;97970.55;258174;1117;115006;-72
2021/04/06 21:41:58;;;;;;;43.10;21.25;;;;;;;2.64;52.52;97968.06;258210;1119;114509;-72
2021/04/06 21:47:01;;;;;;;44.35;21.53;;;;;;;2.65;52.91;97974.16;257797;1118;114720;-72
2021/04/06 21:52:05;;;;;;;50.80;24.50;;;;;;;2.61;52.92;97970.83;258271;1118;114602;-73
2021/04/06 21:57:07;;;;;;;52.05;24.03;;;;;;;2.63;53.31;97968.16;258188;1118;114467;-72
2021/04/06 22:02:10;;;;;;;55.45;24.33;;;;;;;2.58;53.27;97966.60;258020;1119;115410;-73
2021/04/06 22:07:13;;;;;;;50.88;25.40;;;;;;;2.54;53.24;97964.17;257910;1117;114710;-71
2021/04/06 22:12:17;;;;;;;55.90;26.85;;;;;;;2.49;53.99;97951.27;258128;1118;115387;-71
2021/04/06 22:17:20;;;;;;;57.70;28.23;;;;;;;2.46;54.17;97959.28;258294;1118;115858;-72
2021/04/06 22:22:24;;;;;;;59.13;28.00;;;;;;;2.39;54.26;97962.27;257886;1119;116304;-72
2021/04/06 22:27:26;;;;;;;58.23;28.15;;;;;;;2.35;54.05;97957.16;258047;1118;115317;-72
2021/04/06 22:32:30;;;;;;;58.23;29.03;;;;;;;2.35;54.59;97956.31;258061;1119;115141;-72
2021/04/06 22:37:34;;;;;;;62.98;29.60;;;;;;;2.31;54.61;97939.86;258213;1118;114586;-72
2021/04/06 22:42:37;;;;;;;58.83;29.08;;;;;;;2.31;54.61;97938.98;257927;1119;114619;-73
2021/04/06 22:47:40;;;;;;;55.10;26.90;;;;;;;2.27;54.88;97929.55;258214;1119;114799;-72
2021/04/06 22:52:45;;;;;;;55.95;27.68;;;;;;;2.25;54.89;97936.66;257843;1119;115001;-77
2021/04/06 22:57:48;;;;;;;54.50;28.27;;;;;;;2.21;55.03;97928.08;257482;1119;115303;-78
2021/04/06 23:02:51;;;;;;;59.08;28.08;;;;;;;2.22;55.67;97931.55;258265;1119;114655;-77
2021/04/06 23:07:54;;;;;;;55.05;25.90;;;;;;;2.26;55.61;97935.73;258398;1118;114820;-78
2021/04/06 23:12:57;;;;;;;59.88;27.20;;;;;;;2.21;55.42;97928.08;258056;1119;114704;-78
2021/04/06 23:18:04;;;;;;;50.63;27.60;;;;;;;2.18;55.66;97930.00;258208;1119;114224;-78
2021/04/06 23:23:07;;;;;;;63.23;31.50;;;;;;;2.15;55.84;97930.14;258086;1118;114901;-77
2021/04/06 23:28:09;;;;;;;65.45;32.70;;;;;;;2.15;55.82;97925.73;258260;1118;114912;-77
2021/04/06 23:33:14;;;;;;;63.68;30.95;;;;;;;2.12;56.23;97928.50;258349;1118;114821;-77